»·PEaware :: N7GL F70-KSMX

N7GL :: F70-KSMX

FLIGHT INFORMATION

Flight Status: Arrived
Operator: Privately registered:
United States
More flights under this callsign
Pilot: Anonymous 17564 (17564)
Aircraft: GATES LEARJET LEARJET 25
(LJ25)
More flights by this aircraft type
Origin: F70 French Valley
United States
Destination: KSMX Santa Maria Pub/Capt Hancock
United States
More flights between these airports :: More routes between these airports
Route: NIKKL V186 FIM V386 RZS V12 GVO V27 AFOXY
File this flight plan on PilotEdge
Remarks:
Altitude:
(Current/Filed)
12,500ft
Speed:
(Current/Filed)
300kts
Departed: 06-Jan-18 04:30 PM
Arrived: 06-Jan-18 05:17 PM
Distance/Time
Traveled:
183nm/0:47
Distance/Time
To Go:
Arrived

Flight Plot

Page will automatically refresh every two minutes.

Flight plan parsing failed; only flown route is shown


Map Options




Map Legend


Flown Route
Filed Route
Departure Airport
Arrival Airport
Navaid (VOR, NDB)
Fix

Horizontal Profiles

Position Reports

Time Latitude Longitude Heading Altitude Ground
Speed
06-Jan-18 16:26 33.573622 -117.130322 192 1353ft 0kts
06-Jan-18 16:27 33.573622 -117.130322 192 1353ft 0kts
06-Jan-18 16:28 33.573622 -117.130322 192 1353ft 0kts
06-Jan-18 16:29 33.573622 -117.130322 192 1353ft 0kts
06-Jan-18 16:30 33.573622 -117.130322 192 1353ft 0kts
06-Jan-18 16:31 33.573622 -117.130322 192 1353ft 0kts
06-Jan-18 16:32 33.573622 -117.130322 192 1353ft 0kts
06-Jan-18 16:33 33.575165 -117.129023 13 1353ft 11kts
06-Jan-18 16:34 33.578880 -117.128021 12 1353ft 15kts
06-Jan-18 16:35 33.582060 -117.127152 18 1353ft 0kts
06-Jan-18 16:36 33.580358 -117.126862 190 1353ft 67kts
06-Jan-18 16:37 33.530790 -117.139519 190 5968ft 249kts
06-Jan-18 16:38 33.476665 -117.088624 89 8484ft 282kts
06-Jan-18 16:39 33.529512 -117.041527 342 10438ft 258kts
06-Jan-18 16:40 33.573055 -117.102796 303 12341ft 258kts
06-Jan-18 16:41 33.624299 -117.186800 301 12502ft 322kts
06-Jan-18 16:42 33.683776 -117.291478 300 11650ft 363kts
06-Jan-18 16:43 33.729516 -117.383378 293 12382ft 316kts
06-Jan-18 16:44 33.766945 -117.479746 291 12504ft 319kts
06-Jan-18 16:45 33.824720 -117.557691 341 12502ft 341kts
06-Jan-18 16:46 33.920481 -117.547762 335 12510ft 338kts
06-Jan-18 16:47 33.962554 -117.635254 280 12513ft 316kts
06-Jan-18 16:48 33.990970 -117.736089 289 12518ft 318kts
06-Jan-18 16:49 34.023223 -117.835341 287 12525ft 318kts
06-Jan-18 16:50 34.053799 -117.935763 287 12513ft 318kts
06-Jan-18 16:51 34.084503 -118.035789 287 12502ft 318kts
06-Jan-18 16:52 34.115158 -118.135828 287 12503ft 318kts
06-Jan-18 16:53 34.145402 -118.234769 287 12502ft 318kts
06-Jan-18 16:54 34.175905 -118.334918 287 12503ft 318kts
06-Jan-18 16:55 34.206392 -118.435416 287 12502ft 318kts
06-Jan-18 16:56 34.237544 -118.535205 290 12503ft 318kts
06-Jan-18 16:57 34.272048 -118.633720 290 12507ft 319kts
06-Jan-18 16:58 34.306087 -118.732932 290 12515ft 318kts
06-Jan-18 16:59 34.339835 -118.831926 290 12520ft 319kts
06-Jan-18 17:00 34.364444 -118.924569 280 12515ft 272kts
06-Jan-18 17:01 34.380024 -119.014298 280 12518ft 273kts
06-Jan-18 17:02 34.393148 -119.089898 280 11461ft 274kts
06-Jan-18 17:03 34.411343 -119.194927 281 9705ft 271kts
06-Jan-18 17:04 34.424131 -119.269009 282 8457ft 268kts
06-Jan-18 17:05 34.441757 -119.371589 282 6707ft 263kts
06-Jan-18 17:06 34.453975 -119.442970 282 5954ft 258kts
06-Jan-18 17:07 34.468477 -119.528063 282 6004ft 258kts
06-Jan-18 17:08 34.485314 -119.627428 283 6016ft 258kts
06-Jan-18 17:09 34.497317 -119.698490 283 6012ft 258kts
06-Jan-18 17:10 34.510702 -119.784368 276 5901ft 262kts
06-Jan-18 17:11 34.515868 -119.862382 274 4872ft 228kts
06-Jan-18 17:12 34.530427 -119.936953 293 3992ft 227kts
06-Jan-18 17:13 34.560804 -120.019895 293 4012ft 230kts
06-Jan-18 17:14 34.588053 -120.072252 303 3327ft 211kts
06-Jan-18 17:15 34.619288 -120.131533 303 2615ft 205kts
06-Jan-18 17:16 34.649587 -120.189750 302 2504ft 204kts
06-Jan-18 17:17 34.680096 -120.248514 302 2514ft 205kts
06-Jan-18 17:18 34.708094 -120.302505 303 2515ft 178kts
06-Jan-18 17:19 34.743588 -120.342512 331 2523ft 181kts
06-Jan-18 17:20 34.787569 -120.373282 329 2521ft 182kts
06-Jan-18 17:21 34.833223 -120.400602 342 2146ft 184kts
06-Jan-18 17:22 34.874269 -120.424041 314 766ft 129kts
06-Jan-18 17:23 34.898063 -120.452035 316 227ft 27kts
06-Jan-18 17:24 34.899898 -120.453479 354 227ft 0kts
06-Jan-18 17:25 34.900819 -120.453294 134 227ft 3kts
06-Jan-18 17:26 34.899294 -120.451224 87 227ft 10kts
06-Jan-18 17:27 34.899702 -120.450526 303 227ft 0kts
06-Jan-18 17:28 34.899702 -120.450526 303 227ft 0kts
06-Jan-18 17:29 34.899702 -120.450526 303 227ft 0kts
06-Jan-18 17:30 34.899702 -120.450526 303 227ft 0kts
06-Jan-18 17:31 34.899702 -120.450526 303 227ft 0kts
06-Jan-18 17:32 34.899702 -120.450526 303 227ft 0kts
06-Jan-18 17:33 34.899702 -120.450526 303 227ft 0kts

Navigation Log

Ident Type
Flight plan parsing failed, navigation log unavailable